Terminal Aerodrome Forecast
Issued by NWS Duluth, MN

Home | Current Version | Previous Version | Text Only | Print | Product List | Glossary On
Versions: 1 2 3 4 5 6 7 8 9 10 11 12 13 14 15 16 17 18 19 20 21 22 23 24 25 26 27 28 29 30 31 32
000
FTUS43 KDLH 200100 AAA
TAFDLH
TAF AMD
KDLH 200136Z 2002/2024 14008KT 2SM -FZDZSN BR BKN007 OVC011
     FM200600 14007KT 1 1/2SM -FZDZSN BR SCT004 BKN009
      TEMPO 2010/2014 3/4SM -FZDZSN BR OVC004
     FM201600 16008KT 2SM -FZDZSN BR OVC007
     FM202100 17007KT 6SM -FZDZSN BR SCT009 OVC012=

USA.gov is the U.S. government's official web portal to all federal, state and local government web resources and services.